Accueil
METAR-TAF:

METAR-TAF

Aéroports :

Aéroport de Kangiqsujuaq

Kangiqsujuaq, Québec, Canada

latitude: 61-35N, longitude: 071-56W, altitude: 151 m

Observation

Le bulletin a été fait il y a 19 heures et 14 minutes, à 13:00 UTC
Vent 4 kt de ouest/nord-ouest
Température -26°C
Humidité 69%
Pression 987 hPa
Visibilité: 19.3 km
Nuages épars à une hauteur de 2500 ft
Ciel couvert à une hauteur de 20000 ft
neige faible

METAR: CYKG 161300Z 29004KT 12SM -SN SCT025 OVC200 M26/M30 A2916 RMK SC3CI5 SNW CVR/TR LOOSE/LAST STFD OBS/NXT OBS 171300 UTC SLP901

Heure: 03:14 (08:14 UTC)


TAF: absent

Observations et prévisions météorologiques de plus de 4000 aéroports (messages METAR et TAF).

Les stations disponibles sont représentées par des disques jaunes et rouges sur la carte.

Passer la souris dessus pour voir le nom de la station.

Cliquer dessus pour voir les observations et prévisions météorologiques.

Pour changer de carte: cliquez sur les boutons verts avec une croix noire pour zoomer, sur le bouton vert avec un tiret pour effectuer un zoom arrière, ou sur les flèches vertes pour les cartes adjacentes.


METAR-TAF: